Terminal Aerodrome Forecast
Issued by NWS

Home | Current Version | Previous Version | Text Only | Print | Product List | Glossary On
Versions: 1 2 3 4 5 6 7 8 9 10 11 12 13 14
000
FTUS45 KFGZ 020305 AAA
TAFPRC
TAF AMD
KPRC 020305Z 0203/0224 22007KT P6SM SCT080 BKN110
      TEMPO 0203/0204 VRB10G20KT -SHRA BKN100
     FM020400 19007KT P6SM FEW080 SCT110
     FM021900 VRB06KT P6SM SCT060 OVC110
      TEMPO 0220/0224 VRB15G25KT 4SM -TSRA OVC050CB=

USA.gov is the U.S. government's official web portal to all federal, state and local government web resources and services.